createdAt,value
2023-05-19T07:43:44.603Z,94.00
2023-05-19T07:46:11.300Z,92.70
2023-05-19T07:48:38.020Z,91.70
2023-05-19T07:51:04.720Z,92.30
2023-05-19T07:53:31.401Z,92.00
2023-05-19T07:55:59.110Z,92.10
2023-05-19T07:58:27.258Z,92.20
2023-05-19T08:00:56.701Z,92.20
2023-05-19T08:03:23.803Z,91.60
2023-05-19T08:05:50.731Z,90.20
2023-05-19T08:08:19.172Z,90.00
2023-05-19T08:10:46.423Z,89.20
2023-05-19T08:13:13.093Z,89.50
2023-05-19T08:15:39.938Z,90.10
2023-05-19T08:18:06.646Z,90.10
2023-05-19T08:20:34.142Z,90.10
2023-05-19T08:23:01.112Z,89.90
2023-05-19T08:25:27.822Z,89.80
2023-05-19T08:27:55.051Z,88.70
2023-05-19T08:30:21.920Z,88.60
2023-05-19T08:32:48.754Z,87.40
2023-05-19T08:35:20.508Z,87.60
2023-05-19T08:37:47.593Z,86.20
2023-05-19T08:40:18.149Z,83.80
2023-05-19T08:42:46.208Z,82.50
2023-05-19T08:45:13.653Z,82.70
2023-05-19T08:47:47.600Z,82.10
2023-05-19T08:50:19.650Z,83.30
2023-05-19T08:53:01.527Z,83.50
2023-05-19T08:55:53.273Z,83.30
2023-05-19T08:58:21.605Z,82.40
2023-05-19T09:00:49.297Z,81.60
2023-05-19T09:03:23.256Z,81.00
2023-05-19T09:05:50.983Z,81.60
2023-05-19T09:08:18.377Z,82.10
2023-05-19T09:10:45.214Z,80.80
2023-05-19T09:13:12.087Z,80.50
2023-05-19T09:15:41.371Z,78.10
2023-05-19T09:18:10.481Z,79.50
2023-05-19T09:20:40.691Z,79.20
2023-05-19T09:23:08.307Z,76.70
2023-05-19T09:25:35.492Z,73.80
2023-05-19T09:28:05.046Z,74.70
2023-05-19T09:30:33.154Z,76.00
2023-05-19T09:33:00.854Z,75.10
2023-05-19T09:35:27.629Z,74.50
2023-05-19T09:37:55.298Z,75.40
2023-05-19T09:40:21.987Z,74.90
2023-05-19T09:42:48.996Z,74.50
2023-05-19T09:45:16.409Z,71.50
2023-05-19T09:47:43.827Z,70.70
2023-05-19T09:50:12.512Z,70.10
2023-05-19T09:52:40.924Z,70.90
2023-05-19T09:55:11.087Z,71.10
2023-05-19T09:57:38.990Z,71.80
2023-05-19T10:00:19.028Z,71.50
2023-05-19T10:02:47.538Z,71.70
2023-05-19T10:05:21.882Z,70.20
2023-05-19T10:07:54.456Z,69.80
2023-05-19T10:10:22.790Z,70.50
2023-05-19T10:12:49.918Z,68.70
2023-05-19T10:15:22.724Z,68.60
2023-05-19T10:17:50.504Z,69.30
2023-05-19T10:20:18.055Z,69.70
2023-05-19T10:22:46.634Z,69.70
2023-05-19T10:25:18.567Z,70.70
2023-05-19T10:28:21.273Z,71.70
2023-05-19T10:30:50.920Z,70.30
2023-05-19T10:33:19.968Z,70.10
2023-05-19T10:35:59.266Z,70.80
2023-05-19T10:38:25.983Z,70.30
2023-05-19T10:41:47.404Z,71.10
2023-05-19T10:44:28.078Z,71.00
2023-05-19T10:46:57.128Z,69.80
2023-05-19T10:49:24.409Z,69.20
2023-05-19T10:51:54.849Z,69.70
2023-05-19T10:54:43.557Z,69.10
2023-05-19T10:57:16.238Z,70.30
2023-05-19T10:59:45.394Z,71.60
2023-05-19T11:02:42.122Z,72.50
2023-05-19T11:05:14.486Z,73.10
2023-05-19T11:07:43.363Z,74.60
2023-05-19T11:10:10.609Z,76.60
2023-05-19T11:12:45.087Z,77.00
2023-05-19T11:15:16.625Z,78.10
2023-05-19T11:17:48.402Z,79.10
2023-05-19T11:20:28.861Z,79.50
2023-05-19T11:23:24.790Z,78.90
2023-05-19T11:25:53.840Z,79.80
2023-05-19T11:28:26.238Z,80.40
2023-05-19T11:30:54.952Z,81.00
2023-05-19T11:33:21.815Z,81.50
2023-05-19T11:35:51.012Z,81.50
2023-05-19T11:38:19.552Z,81.90
2023-05-19T11:40:47.670Z,83.10
2023-05-19T11:43:14.406Z,82.30
2023-05-19T11:45:41.909Z,81.70
2023-05-19T11:48:13.046Z,81.70
2023-05-19T11:50:44.047Z,81.10
2023-05-19T11:53:16.280Z,81.80
2023-05-19T11:55:46.192Z,82.00
2023-05-19T11:58:13.123Z,83.10
2023-05-19T12:00:41.572Z,83.10
2023-05-19T12:03:09.660Z,82.30
2023-05-19T12:05:48.882Z,82.80
2023-05-19T12:08:19.243Z,83.60
2023-05-19T12:10:51.749Z,82.00
2023-05-19T12:13:19.571Z,81.80
2023-05-19T12:15:46.412Z,81.10
2023-05-19T12:18:13.113Z,81.30
2023-05-19T12:20:40.015Z,81.20
2023-05-19T12:23:11.210Z,80.70
2023-05-19T12:25:38.664Z,81.40
2023-05-19T12:28:05.638Z,81.40
2023-05-19T12:30:33.607Z,81.20
2023-05-19T12:33:02.492Z,80.80
2023-05-19T12:35:32.120Z,81.10
2023-05-19T12:38:11.706Z,80.80
2023-05-19T12:40:42.122Z,80.00
2023-05-19T12:43:09.928Z,80.50
2023-05-19T12:45:37.489Z,82.10
2023-05-19T12:48:16.043Z,82.30
2023-05-19T12:50:45.269Z,81.10
2023-05-19T12:53:14.569Z,82.30
2023-05-19T12:55:43.137Z,81.80
2023-05-19T12:58:11.487Z,82.10
2023-05-19T13:00:50.450Z,81.70
2023-05-19T13:03:19.591Z,82.00
2023-05-19T13:05:48.481Z,82.60
2023-05-19T13:08:20.353Z,81.20
2023-05-19T13:10:49.749Z,80.60
2023-05-19T13:13:16.581Z,80.80
2023-05-19T13:15:45.586Z,81.40
2023-05-19T13:18:13.857Z,80.80
2023-05-19T13:20:42.880Z,79.20
2023-05-19T13:23:11.126Z,80.90
2023-05-19T13:25:37.886Z,80.30
2023-05-19T13:28:08.539Z,79.70
2023-05-19T13:30:38.427Z,79.10
2023-05-19T13:33:05.563Z,79.50
2023-05-19T13:35:37.079Z,80.10
2023-05-19T13:38:05.815Z,79.70
2023-05-19T13:40:35.594Z,79.30
2023-05-19T13:43:03.526Z,76.60
2023-05-19T13:45:30.409Z,78.30
2023-05-19T13:47:57.177Z,79.30
2023-05-19T13:50:24.011Z,79.20
2023-05-19T13:52:50.668Z,77.60
2023-05-19T13:55:17.561Z,78.60
2023-05-19T13:57:44.815Z,78.80
2023-05-19T14:00:11.884Z,79.70
2023-05-19T14:02:39.277Z,79.50
2023-05-19T14:05:09.596Z,79.80
2023-05-19T14:07:39.587Z,79.80
2023-05-19T14:10:07.076Z,80.80
2023-05-19T14:12:45.097Z,80.20
2023-05-19T14:15:19.748Z,80.30
2023-05-19T14:17:49.037Z,80.90
2023-05-19T14:20:15.970Z,81.10
2023-05-19T14:22:42.636Z,80.40
2023-05-19T14:25:09.646Z,80.70
2023-05-19T14:27:36.413Z,81.50
2023-05-19T14:30:03.379Z,81.70
2023-05-19T14:32:30.696Z,82.40
2023-05-19T14:34:57.468Z,80.50
2023-05-19T14:37:26.426Z,79.40
2023-05-19T14:39:53.558Z,80.60
2023-05-19T14:42:20.344Z,80.80
2023-05-19T14:44:47.005Z,80.60
2023-05-19T14:47:13.717Z,81.00
2023-05-19T14:49:40.514Z,80.50
2023-05-19T14:52:07.285Z,81.30
2023-05-19T14:54:34.098Z,81.90
2023-05-19T14:57:01.593Z,81.20
2023-05-19T14:59:29.712Z,81.10
2023-05-19T15:01:56.361Z,81.00
2023-05-19T15:04:23.247Z,81.20
2023-05-19T15:06:58.077Z,81.40
2023-05-19T15:09:36.045Z,81.80
2023-05-19T15:12:03.010Z,82.50
2023-05-19T15:14:31.071Z,80.50
2023-05-19T15:16:58.389Z,79.90
2023-05-19T15:19:26.434Z,80.60
2023-05-19T15:21:53.314Z,81.00
2023-05-19T15:24:20.172Z,81.20
2023-05-19T15:26:47.224Z,81.50
2023-05-19T15:29:14.016Z,82.00
2023-05-19T15:31:40.974Z,82.20
2023-05-19T15:34:07.996Z,81.80
2023-05-19T15:36:34.988Z,82.30
2023-05-19T15:39:01.736Z,81.70
2023-05-19T15:41:28.433Z,80.80
2023-05-19T15:43:55.109Z,81.30
2023-05-19T15:46:21.854Z,80.30
2023-05-19T15:48:48.487Z,81.70
2023-05-19T15:51:15.857Z,83.10
2023-05-19T15:53:42.816Z,83.60
2023-05-19T15:56:09.532Z,82.20
2023-05-19T15:58:36.247Z,82.80
2023-05-19T16:01:03.637Z,82.40
2023-05-19T16:03:30.808Z,81.10
2023-05-19T16:05:57.752Z,81.80
2023-05-19T16:08:25.125Z,83.10
2023-05-19T16:10:54.775Z,82.80
2023-05-19T16:13:24.543Z,83.60
2023-05-19T16:15:51.272Z,83.60
2023-05-19T16:18:18.108Z,82.10
2023-05-19T16:20:45.041Z,82.60
2023-05-19T16:23:11.730Z,83.20
2023-05-19T16:25:38.445Z,82.30
2023-05-19T16:28:05.587Z,81.50
2023-05-19T16:30:32.736Z,82.60
2023-05-19T16:32:59.945Z,83.20
2023-05-19T16:35:29.347Z,83.20
2023-05-19T16:37:58.782Z,83.90
2023-05-19T16:40:25.598Z,84.30
2023-05-19T16:42:56.491Z,84.40
2023-05-19T16:45:23.168Z,83.60
2023-05-19T16:47:50.061Z,83.30
2023-05-19T16:50:16.890Z,83.60
2023-05-19T16:52:43.760Z,84.60
2023-05-19T16:55:11.093Z,85.40
2023-05-19T16:57:37.843Z,85.50
2023-05-19T17:00:05.020Z,85.90
2023-05-19T17:02:31.986Z,86.50
2023-05-19T17:04:59.056Z,86.40
2023-05-19T17:07:27.788Z,86.70
2023-05-19T17:09:56.947Z,86.50
2023-05-19T17:12:23.713Z,86.70
2023-05-19T17:14:51.980Z,86.40
2023-05-19T17:17:19.078Z,86.40
2023-05-19T17:19:46.832Z,86.50
2023-05-19T17:22:13.563Z,86.60
2023-05-19T17:24:40.448Z,86.80
2023-05-19T17:27:07.121Z,87.10
2023-05-19T17:29:34.449Z,87.60
2023-05-19T17:32:03.994Z,88.10
2023-05-19T17:34:30.995Z,88.90
2023-05-19T17:36:57.696Z,89.80
2023-05-19T17:39:26.479Z,88.80
2023-05-19T17:41:53.274Z,89.10
2023-05-19T17:44:20.281Z,89.30
2023-05-19T17:46:47.556Z,89.00
2023-05-19T17:49:15.298Z,89.00
2023-05-19T17:51:42.212Z,90.10
2023-05-19T17:54:12.182Z,90.30
2023-05-19T17:56:42.939Z,90.30
2023-05-19T17:59:09.975Z,90.30
2023-05-19T18:01:37.042Z,90.30
2023-05-19T18:04:04.389Z,90.60
2023-05-19T18:06:32.156Z,90.70
2023-05-19T18:09:01.181Z,90.50
2023-05-19T18:11:28.281Z,90.90
2023-05-19T18:13:55.105Z,91.10
2023-05-19T18:16:21.806Z,91.30
2023-05-19T18:18:50.549Z,91.50
2023-05-19T18:21:18.252Z,91.10
2023-05-19T18:23:47.740Z,91.10
2023-05-19T18:26:15.832Z,91.20
2023-05-19T18:28:43.350Z,91.20
2023-05-19T18:31:15.584Z,91.30
2023-05-19T18:33:43.068Z,91.60
2023-05-19T18:36:10.233Z,91.70
2023-05-19T18:38:37.076Z,91.70
2023-05-19T18:41:06.602Z,91.80
2023-05-19T18:43:34.301Z,92.00
2023-05-19T18:46:01.197Z,92.20
2023-05-19T18:48:28.314Z,92.30
2023-05-19T18:50:55.167Z,92.40
2023-05-19T18:53:22.682Z,92.70
2023-05-19T18:55:49.555Z,92.90
2023-05-19T18:58:18.473Z,93.00
2023-05-19T19:00:45.459Z,93.30
2023-05-19T19:03:12.558Z,93.60
2023-05-19T19:05:40.157Z,93.80
2023-05-19T19:08:06.830Z,94.00
2023-05-19T19:10:37.017Z,94.20
2023-05-19T19:13:03.638Z,94.60
2023-05-19T19:15:31.291Z,95.00
2023-05-19T19:17:58.062Z,95.40
2023-05-19T19:20:24.956Z,95.90
2023-05-19T19:22:52.050Z,96.50
2023-05-19T19:25:19.060Z,96.80
2023-05-19T19:27:46.597Z,97.30
2023-05-19T19:30:13.506Z,97.70
2023-05-19T19:32:40.200Z,98.10
2023-05-19T19:35:07.282Z,98.50
2023-05-19T19:37:33.985Z,98.70
2023-05-19T19:40:00.702Z,99.20
2023-05-19T19:42:27.425Z,99.60
2023-05-19T19:44:56.989Z,99.90
2023-05-19T19:47:23.704Z,99.90
2023-05-19T19:49:50.451Z,99.90
2023-05-19T19:52:17.262Z,99.90
2023-05-19T19:54:51.666Z,99.90
2023-05-19T19:57:18.462Z,99.90
2023-05-19T19:59:45.397Z,99.90
2023-05-19T20:02:14.450Z,99.90
2023-05-19T20:04:41.301Z,99.90
2023-05-19T20:07:07.989Z,99.90
2023-05-19T20:09:34.788Z,99.90
2023-05-19T20:12:01.541Z,99.90
2023-05-19T20:14:29.743Z,99.90
2023-05-19T20:16:56.645Z,99.90
2023-05-19T20:19:25.497Z,99.90
2023-05-19T20:21:52.241Z,99.90
2023-05-19T20:24:19.198Z,99.90
2023-05-19T20:26:45.853Z,99.90
2023-05-19T20:29:13.684Z,99.90
2023-05-19T20:31:41.217Z,99.90
2023-05-19T20:34:08.257Z,99.90
2023-05-19T20:36:34.968Z,99.90
2023-05-19T20:39:01.829Z,99.90
2023-05-19T20:41:29.501Z,99.90
2023-05-19T20:43:57.160Z,99.90
2023-05-19T20:46:24.019Z,99.90
2023-05-19T20:48:50.750Z,99.90
2023-05-19T20:51:17.461Z,99.90
2023-05-19T20:53:44.128Z,99.90
2023-05-19T20:56:11.044Z,99.90
2023-05-19T20:58:37.896Z,99.90
2023-05-19T21:01:04.998Z,99.90
2023-05-19T21:03:32.148Z,99.90
2023-05-19T21:06:01.202Z,99.90
2023-05-19T21:08:27.942Z,99.90
2023-05-19T21:10:54.706Z,99.90
2023-05-19T21:13:22.815Z,99.90
2023-05-19T21:15:49.505Z,99.90
2023-05-19T21:18:16.170Z,99.90
2023-05-19T21:20:44.146Z,99.90
2023-05-19T21:23:10.823Z,99.90
2023-05-19T21:25:39.093Z,99.90
2023-05-19T21:28:05.983Z,99.90
2023-05-19T21:30:34.723Z,99.90
2023-05-19T21:33:01.840Z,99.90
2023-05-19T21:35:28.596Z,99.90
2023-05-19T21:37:55.812Z,99.90
2023-05-19T21:40:22.800Z,99.90
2023-05-19T21:42:49.482Z,99.90
2023-05-19T21:45:17.481Z,99.90
2023-05-19T21:47:44.384Z,99.90
2023-05-19T21:50:11.195Z,99.90
2023-05-19T21:52:38.805Z,99.90
2023-05-19T21:55:06.206Z,99.90
2023-05-19T21:57:33.930Z,99.90
2023-05-19T22:00:00.847Z,99.90
2023-05-19T22:02:27.525Z,99.90
2023-05-19T22:04:54.175Z,99.90
2023-05-19T22:07:26.726Z,99.90
2023-05-19T22:09:53.915Z,99.90
2023-05-19T22:12:20.756Z,99.90
2023-05-19T22:14:47.480Z,99.90
2023-05-19T22:17:14.175Z,99.90
2023-05-19T22:19:40.853Z,99.90
2023-05-19T22:22:13.743Z,99.90
2023-05-19T22:24:41.833Z,99.90
2023-05-19T22:27:08.665Z,99.90
2023-05-19T22:29:38.402Z,99.90
2023-05-19T22:32:12.166Z,99.90
2023-05-19T22:34:39.542Z,99.90
2023-05-19T22:37:06.326Z,99.90
2023-05-19T22:39:33.065Z,99.90
2023-05-19T22:41:59.762Z,99.90
2023-05-19T22:44:26.479Z,99.90
2023-05-19T22:46:53.197Z,99.90
2023-05-19T22:49:22.858Z,99.90
2023-05-19T22:51:50.006Z,99.90
2023-05-19T22:54:16.782Z,99.90
2023-05-19T22:56:46.436Z,99.90
2023-05-19T22:59:13.278Z,99.90
2023-05-19T23:01:40.206Z,99.90
2023-05-19T23:04:07.141Z,99.90
2023-05-19T23:06:34.017Z,99.90
2023-05-19T23:09:02.037Z,99.90
2023-05-19T23:11:28.825Z,99.90
2023-05-19T23:13:55.903Z,99.90
2023-05-19T23:16:23.846Z,99.90
2023-05-19T23:18:50.690Z,99.90
2023-05-19T23:21:17.372Z,99.90
2023-05-19T23:23:45.434Z,99.90
2023-05-19T23:26:15.119Z,99.90
2023-05-19T23:28:42.842Z,99.90
2023-05-19T23:31:09.837Z,99.90
2023-05-19T23:33:38.699Z,99.90
2023-05-19T23:36:07.963Z,99.90
2023-05-19T23:38:35.584Z,99.90
2023-05-19T23:41:02.610Z,99.90
2023-05-19T23:43:29.406Z,99.90
2023-05-19T23:45:56.367Z,99.90
2023-05-19T23:48:23.151Z,99.90
2023-05-19T23:50:49.947Z,99.90
2023-05-19T23:53:17.236Z,99.90
2023-05-19T23:55:44.799Z,99.90
2023-05-19T23:58:12.945Z,99.90
